Time;durP1;ratioP1;P1;durP2;ratioP2;P2;SDS_P1;SDS_P2;PMS_P1;PMS_P2;Temp;Humidity;BMP_temperature;BMP_pressure;BME280_temperature;BME280_humidity;BME280_pressure;Samples;Min_cycle;Max_cycle;Signal;HPM_P1;HPM_P2
2021/12/23 00:00:05;;;;;;;75.20;31.73;;;-3.70;99.90;;;;;;5093244;28;20219;-79
2021/12/23 00:02:34;;;;;;;68.87;27.77;;;-3.70;99.90;;;;;;5095955;28;20244;-79
2021/12/23 00:05:01;;;;;;;78.03;31.03;;;-3.70;99.90;;;;;;5096019;28;20263;-79
2021/12/23 00:07:28;;;;;;;69.37;30.13;;;-3.70;99.90;;;;;;5095048;28;20191;-79
2021/12/23 00:12:40;;;;;;;76.43;33.53;;;-3.70;99.90;;;;;;5095609;28;20222;-78
2021/12/23 00:15:16;;;;;;;80.90;34.30;;;-3.70;99.90;;;;;;5095458;28;20644;-79
2021/12/23 00:17:58;;;;;;;75.93;33.73;;;-3.70;99.90;;;;;;5096083;28;20236;-79
2021/12/23 00:23:25;;;;;;;78.47;32.10;;;-3.70;99.90;;;;;;5095545;28;20308;-79
2021/12/23 00:25:54;;;;;;;75.50;31.47;;;-3.70;99.90;;;;;;5095900;28;20195;-79
2021/12/23 00:28:22;;;;;;;75.90;31.10;;;-3.70;99.90;;;;;;5095469;28;20198;-79
2021/12/23 00:30:50;;;;;;;79.10;35.63;;;-3.70;99.90;;;;;;5095371;28;20195;-79
2021/12/23 00:33:18;;;;;;;73.13;30.90;;;-3.70;99.90;;;;;;5095755;28;20191;-79
2021/12/23 00:35:45;;;;;;;75.73;33.40;;;-3.70;99.90;;;;;;5094813;28;20190;-79
2021/12/23 00:38:19;;;;;;;71.97;31.17;;;-3.70;99.90;;;;;;5095237;28;20555;-79
2021/12/23 00:40:46;;;;;;;77.37;33.97;;;-3.70;99.90;;;;;;5095286;28;20667;-79
2021/12/23 00:43:14;;;;;;;83.30;33.87;;;-3.70;99.90;;;;;;5094853;28;20192;-80
2021/12/23 00:45:41;;;;;;;83.00;34.70;;;-3.70;99.90;;;;;;5095482;28;20195;-79
2021/12/23 00:48:08;;;;;;;78.07;32.43;;;-3.70;99.90;;;;;;5095064;28;20594;-79
2021/12/23 00:50:36;;;;;;;76.20;30.90;;;-3.70;99.90;;;;;;5095223;28;20187;-79
2021/12/23 00:53:07;;;;;;;77.70;33.43;;;-3.80;99.90;;;;;;5095275;28;20213;-79
2021/12/23 00:55:34;;;;;;;80.10;33.43;;;-3.80;99.90;;;;;;5095451;28;20232;-79
2021/12/23 00:58:01;;;;;;;88.60;38.30;;;-3.80;99.90;;;;;;5095547;28;20190;-79
2021/12/23 01:00:28;;;;;;;79.70;33.93;;;-3.80;99.90;;;;;;5095473;28;20214;-79
2021/12/23 01:02:58;;;;;;;78.60;34.70;;;-3.80;99.90;;;;;;5095082;28;20195;-79
2021/12/23 01:05:26;;;;;;;75.13;32.23;;;-3.80;99.90;;;;;;5094833;28;20191;-78
2021/12/23 01:07:54;;;;;;;81.13;34.60;;;-3.80;99.90;;;;;;5094984;28;20232;-79
2021/12/23 01:10:23;;;;;;;85.83;33.57;;;-3.80;99.90;;;;;;5094515;28;20191;-79
2021/12/23 01:12:55;;;;;;;82.60;34.17;;;-3.80;99.90;;;;;;5094713;28;20215;-79
2021/12/23 01:18:13;;;;;;;95.70;38.60;;;-3.80;99.90;;;;;;5094696;28;20178;-78
2021/12/23 01:20:50;;;;;;;80.83;33.70;;;-3.80;99.90;;;;;;5116533;28;20198;-80
2021/12/23 01:23:31;;;;;;;75.27;33.00;;;-3.80;99.90;;;;;;5118749;28;20183;-82
2021/12/23 01:26:08;;;;;;;86.63;37.77;;;-3.80;99.90;;;;;;5118209;28;20196;-82
2021/12/23 01:28:46;;;;;;;82.77;32.80;;;-3.80;99.90;;;;;;5118504;28;20175;-82
2021/12/23 01:31:19;;;;;;;83.83;36.73;;;-3.80;99.90;;;;;;5118162;28;20179;-81
2021/12/23 01:33:50;;;;;;;69.60;30.50;;;-3.80;99.90;;;;;;5118270;28;20194;-80
2021/12/23 01:36:25;;;;;;;69.47;30.13;;;-3.80;99.90;;;;;;5117637;28;20264;-80
2021/12/23 01:42:35;;;;;;;67.97;30.60;;;-3.80;99.90;;;;;;5118457;28;20198;-82
2021/12/23 01:45:15;;;;;;;77.50;31.10;;;-3.80;99.90;;;;;;5111928;28;20195;-81
2021/12/23 01:48:17;;;;;;;71.37;31.43;;;-3.80;99.90;;;;;;5117798;28;20191;-80
2021/12/23 01:50:56;;;;;;;71.80;31.17;;;-3.80;99.90;;;;;;5117965;28;20225;-82
2021/12/23 01:54:03;;;;;;;66.47;28.07;;;-3.80;99.90;;;;;;5117821;28;20186;-80
2021/12/23 01:57:05;;;;;;;71.07;29.80;;;-3.80;99.90;;;;;;5117628;28;20201;-82
2021/12/23 01:59:42;;;;;;;63.47;27.50;;;-3.90;99.90;;;;;;5117921;28;20179;-80
2021/12/23 02:02:23;;;;;;;67.77;29.70;;;-3.90;99.90;;;;;;5117627;28;20179;-80
2021/12/23 02:05:23;;;;;;;65.60;28.20;;;-3.90;99.90;;;;;;5116660;28;20195;-83
2021/12/23 02:11:07;;;;;;;70.67;29.60;;;-3.90;99.90;;;;;;5092604;28;20215;-82
2021/12/23 02:16:48;;;;;;;61.73;28.23;;;-4.00;99.90;;;;;;5086424;28;20192;-83
2021/12/23 02:19:48;;;;;;;67.33;28.90;;;-4.00;99.90;;;;;;5093743;28;20346;-81
2021/12/23 02:31:28;;;;;;;62.43;28.17;;;-4.10;99.90;;;;;;5091799;28;20258;-80
2021/12/23 02:37:47;;;;;;;58.03;27.47;;;-4.10;99.90;;;;;;5105358;28;20290;-81
2021/12/23 02:41:17;;;;;;;61.00;27.03;;;-4.10;99.90;;;;;;5116847;28;20207;-82
2021/12/23 02:44:22;;;;;;;67.83;29.07;;;-4.20;99.90;;;;;;5117418;28;20194;-81
2021/12/23 02:47:32;;;;;;;57.07;25.10;;;-4.20;99.90;;;;;;5116793;28;20195;-81
2021/12/23 02:50:32;;;;;;;68.73;30.07;;;-4.20;99.90;;;;;;5103731;28;20195;-81
2021/12/23 02:53:29;;;;;;;68.27;29.33;;;-4.20;99.90;;;;;;5117084;28;20214;-81
2021/12/23 02:56:11;;;;;;;75.83;30.33;;;-4.20;99.90;;;;;;5083805;28;20176;-81
2021/12/23 02:59:15;;;;;;;54.03;22.70;;;-4.20;99.90;;;;;;5116386;28;20261;-82
2021/12/23 03:02:07;;;;;;;64.17;28.03;;;-4.30;99.90;;;;;;5116367;28;20203;-80
2021/12/23 03:04:42;;;;;;;63.07;27.43;;;-4.20;99.90;;;;;;5116421;28;20183;-80
2021/12/23 03:07:46;;;;;;;69.83;30.00;;;-4.20;99.90;;;;;;5117044;28;20179;-81
2021/12/23 03:10:58;;;;;;;58.07;26.63;;;-4.20;99.90;;;;;;5116190;28;20182;-80
2021/12/23 03:13:35;;;;;;;64.83;28.83;;;-4.20;99.90;;;;;;5115774;28;20226;-81
2021/12/23 03:16:27;;;;;;;63.23;27.93;;;-4.20;99.90;;;;;;5116514;28;20186;-81
2021/12/23 03:19:07;;;;;;;63.33;27.00;;;-4.10;99.90;;;;;;5116263;28;20184;-80
2021/12/23 03:21:49;;;;;;;61.57;27.00;;;-4.10;99.90;;;;;;5116318;28;20222;-81
2021/12/23 03:24:54;;;;;;;65.10;27.87;;;-4.20;99.90;;;;;;5116526;28;20183;-81
2021/12/23 03:27:45;;;;;;;69.00;26.87;;;-4.20;99.90;;;;;;5116681;28;20185;-80
2021/12/23 03:30:32;;;;;;;58.83;27.10;;;-4.20;99.90;;;;;;5116371;28;20215;-80
2021/12/23 03:33:20;;;;;;;63.87;26.33;;;-4.20;99.90;;;;;;5116544;28;20229;-81
2021/12/23 03:39:02;;;;;;;59.67;27.03;;;-4.10;99.90;;;;;;5018634;28;20174;-81
2021/12/23 03:41:48;;;;;;;64.23;27.87;;;-4.20;99.90;;;;;;5054950;28;20221;-80
2021/12/23 03:44:40;;;;;;;89.70;33.43;;;-4.10;99.90;;;;;;5059278;28;20196;-81
2021/12/23 03:47:38;;;;;;;78.60;32.20;;;-4.10;99.90;;;;;;5058473;28;20270;-80
2021/12/23 03:50:17;;;;;;;82.97;36.87;;;-4.10;99.90;;;;;;5046995;28;20200;-80
2021/12/23 03:53:03;;;;;;;68.77;31.03;;;-4.10;99.90;;;;;;5058933;28;20187;-81
2021/12/23 03:55:40;;;;;;;63.40;28.53;;;-4.10;99.90;;;;;;5055748;28;20200;-81
2021/12/23 04:01:53;;;;;;;62.07;26.57;;;-4.10;99.90;;;;;;5001496;28;20219;-79
2021/12/23 04:04:40;;;;;;;58.80;27.57;;;-4.00;99.90;;;;;;5058501;28;20201;-79
2021/12/23 04:07:36;;;;;;;55.00;25.87;;;-4.00;99.90;;;;;;5058066;28;20185;-81
2021/12/23 04:10:12;;;;;;;59.83;26.97;;;-4.00;99.90;;;;;;5031342;28;20188;-82
2021/12/23 04:16:11;;;;;;;60.70;27.50;;;-4.00;99.90;;;;;;5088188;28;20218;-81
2021/12/23 04:18:53;;;;;;;57.27;25.07;;;-4.00;99.90;;;;;;5119985;28;20175;-82
2021/12/23 04:24:57;;;;;;;68.33;29.53;;;-3.90;99.90;;;;;;5120079;28;20183;-83
2021/12/23 04:28:02;;;;;;;63.53;28.30;;;-3.90;99.90;;;;;;5087584;28;20244;-80
2021/12/23 04:30:50;;;;;;;60.70;27.43;;;-3.90;99.90;;;;;;5119436;28;20195;-82
2021/12/23 04:33:35;;;;;;;58.67;27.10;;;-3.90;99.90;;;;;;5119569;28;20183;-82
2021/12/23 04:39:48;;;;;;;57.90;26.10;;;-3.80;99.90;;;;;;5116453;28;20194;-82
2021/12/23 04:42:44;;;;;;;61.33;29.30;;;-3.70;99.90;;;;;;5119191;28;20222;-82
2021/12/23 04:45:27;;;;;;;59.80;26.23;;;-3.70;99.90;;;;;;5118701;28;20213;-83
2021/12/23 04:48:12;;;;;;;55.97;26.13;;;-3.70;99.90;;;;;;5119063;28;20262;-81
2021/12/23 04:50:49;;;;;;;61.63;25.87;;;-3.70;99.90;;;;;;5119002;28;20640;-81
2021/12/23 04:59:22;;;;;;;56.00;25.60;;;-3.60;99.90;;;;;;5118684;28;20179;-82
2021/12/23 05:01:57;;;;;;;56.70;25.63;;;-3.60;99.90;;;;;;5119051;28;20229;-81
2021/12/23 05:04:33;;;;;;;61.40;26.87;;;-3.60;99.90;;;;;;5119249;28;20175;-80
2021/12/23 05:07:11;;;;;;;57.43;27.43;;;-3.60;99.90;;;;;;5119074;28;20198;-79
2021/12/23 05:12:57;;;;;;;52.73;24.97;;;-3.60;99.90;;;;;;5113180;27;20209;-82
2021/12/23 05:15:53;;;;;;;48.30;24.33;;;-3.60;99.90;;;;;;5085600;28;20309;-81
2021/12/23 05:18:22;;;;;;;56.50;27.57;;;-3.60;99.90;;;;;;5118736;28;20254;-80
2021/12/23 05:21:02;;;;;;;54.27;27.00;;;-3.60;99.90;;;;;;5118541;28;20199;-82
2021/12/23 05:23:48;;;;;;;60.30;27.87;;;-3.60;99.90;;;;;;5117791;28;20194;-80
2021/12/23 05:26:55;;;;;;;52.30;25.77;;;-3.60;99.90;;;;;;5118044;28;20179;-81
2021/12/23 05:30:02;;;;;;;53.87;25.77;;;-3.60;99.90;;;;;;5117367;28;20199;-84
2021/12/23 05:33:03;;;;;;;58.17;26.30;;;-3.60;99.90;;;;;;5118119;28;20190;-79
2021/12/23 05:36:08;;;;;;;60.93;26.53;;;-3.60;99.90;;;;;;5115958;28;20842;-81
2021/12/23 05:39:06;;;;;;;53.93;25.50;;;-3.60;99.90;;;;;;5117932;28;20203;-79
2021/12/23 05:41:36;;;;;;;55.10;27.23;;;-3.60;99.90;;;;;;5105290;28;20652;-78
2021/12/23 05:44:03;;;;;;;50.77;24.90;;;-3.50;99.90;;;;;;5094211;28;20278;-78
2021/12/23 05:46:30;;;;;;;58.63;26.60;;;-3.50;99.90;;;;;;5093942;28;20199;-78
2021/12/23 05:48:59;;;;;;;51.23;23.33;;;-3.50;99.90;;;;;;5093685;28;20652;-78
2021/12/23 05:51:26;;;;;;;53.63;23.73;;;-3.40;99.90;;;;;;5093921;28;20199;-78
2021/12/23 05:53:53;;;;;;;52.00;23.57;;;-3.50;99.90;;;;;;5094044;28;20252;-78
2021/12/23 05:56:20;;;;;;;51.37;25.07;;;-3.40;99.90;;;;;;5094344;28;20191;-78
2021/12/23 05:58:47;;;;;;;55.83;24.10;;;-3.40;99.90;;;;;;5093673;28;20187;-77
2021/12/23 06:01:14;;;;;;;54.83;24.70;;;-3.40;99.90;;;;;;5093877;28;20280;-78
2021/12/23 06:03:41;;;;;;;56.53;25.40;;;-3.40;99.90;;;;;;5093993;28;20251;-78
2021/12/23 06:06:10;;;;;;;55.87;24.63;;;-3.40;99.90;;;;;;5093974;28;20191;-78
2021/12/23 06:08:37;;;;;;;48.03;24.90;;;-3.30;99.90;;;;;;5093702;28;20236;-77
2021/12/23 06:11:03;;;;;;;63.13;30.03;;;-3.30;99.90;;;;;;5093812;28;20191;-78
2021/12/23 06:13:30;;;;;;;73.00;27.40;;;-3.30;99.90;;;;;;5093759;28;20194;-78
2021/12/23 06:15:57;;;;;;;69.37;28.20;;;-3.30;99.90;;;;;;5093880;28;20235;-78
2021/12/23 06:18:24;;;;;;;64.83;26.70;;;-3.30;99.90;;;;;;5093275;28;20187;-78
2021/12/23 06:20:51;;;;;;;70.90;29.03;;;-3.20;99.90;;;;;;5093419;28;20199;-78
2021/12/23 06:23:20;;;;;;;66.23;28.50;;;-3.20;99.90;;;;;;5093138;28;20229;-78
2021/12/23 06:25:47;;;;;;;64.43;27.70;;;-3.20;99.90;;;;;;5093507;28;20195;-78
2021/12/23 06:28:14;;;;;;;56.97;25.03;;;-3.20;99.90;;;;;;5093271;28;20247;-78
2021/12/23 06:30:41;;;;;;;59.07;25.60;;;-3.20;99.90;;;;;;5093448;28;20199;-78
2021/12/23 06:33:08;;;;;;;57.57;27.33;;;-3.20;99.90;;;;;;5093080;28;20249;-78
2021/12/23 06:35:36;;;;;;;59.63;25.60;;;-3.10;99.90;;;;;;5092818;28;20229;-79
2021/12/23 06:38:06;;;;;;;52.43;25.40;;;-3.20;99.90;;;;;;5093433;28;20294;-78
2021/12/23 06:40:35;;;;;;;65.47;26.87;;;-3.20;99.90;;;;;;5093013;28;20603;-78
2021/12/23 06:43:02;;;;;;;68.43;28.27;;;-3.20;99.90;;;;;;5092912;28;20260;-78
2021/12/23 06:45:29;;;;;;;66.30;28.43;;;-3.20;99.90;;;;;;5092999;28;20592;-78
2021/12/23 06:47:56;;;;;;;62.03;27.47;;;-3.20;99.90;;;;;;5093001;28;20240;-78
2021/12/23 06:50:23;;;;;;;60.37;26.40;;;-3.30;99.90;;;;;;5093482;28;20191;-78
2021/12/23 06:52:50;;;;;;;57.80;28.23;;;-3.30;99.90;;;;;;5093090;28;20199;-78
2021/12/23 06:55:18;;;;;;;63.80;30.37;;;-3.30;99.90;;;;;;5092855;28;20668;-78
2021/12/23 06:57:52;;;;;;;71.27;30.53;;;-3.30;99.90;;;;;;5092729;28;20245;-78
2021/12/23 07:00:19;;;;;;;56.80;27.63;;;-3.30;99.90;;;;;;5092994;28;20179;-78
2021/12/23 07:02:46;;;;;;;65.63;28.80;;;-3.30;99.90;;;;;;5092588;28;20736;-78
2021/12/23 07:05:14;;;;;;;63.27;29.00;;;-3.30;99.90;;;;;;5092588;28;20195;-79
2021/12/23 07:07:51;;;;;;;61.60;25.90;;;-3.30;99.90;;;;;;5092907;28;20195;-78
2021/12/23 07:10:18;;;;;;;71.30;32.57;;;-3.30;99.90;;;;;;5092118;28;20186;-79
2021/12/23 07:12:47;;;;;;;69.87;31.60;;;-3.30;99.90;;;;;;5092475;28;20198;-79
2021/12/23 07:15:14;;;;;;;70.43;33.43;;;-3.30;99.90;;;;;;5092496;28;20219;-78
2021/12/23 07:17:41;;;;;;;74.80;33.03;;;-3.30;99.90;;;;;;5092437;28;20210;-78
2021/12/23 07:20:09;;;;;;;58.77;28.67;;;-3.20;99.90;;;;;;5092394;28;20191;-78
2021/12/23 07:22:36;;;;;;;61.77;28.80;;;-3.20;99.90;;;;;;5092408;28;20207;-78
2021/12/23 07:25:05;;;;;;;59.60;28.30;;;-3.20;99.90;;;;;;5092282;28;20195;-78
2021/12/23 07:27:32;;;;;;;81.17;37.40;;;-3.20;99.90;;;;;;5092302;28;20743;-78
2021/12/23 07:30:00;;;;;;;105.60;46.13;;;-3.20;99.90;;;;;;5098396;28;20191;-78
2021/12/23 07:32:27;;;;;;;124.87;56.70;;;-3.10;99.90;;;;;;5092263;28;20538;-78
2021/12/23 07:34:54;;;;;;;108.27;46.10;;;-3.10;99.90;;;;;;5092561;28;20195;-79
2021/12/23 07:37:21;;;;;;;93.40;40.50;;;-3.10;99.90;;;;;;5092527;28;20191;-78
2021/12/23 07:39:49;;;;;;;95.43;41.67;;;-3.10;99.90;;;;;;5092569;28;20248;-79
2021/12/23 07:42:16;;;;;;;69.87;33.17;;;-3.00;99.90;;;;;;5091791;28;20243;-79
2021/12/23 07:44:44;;;;;;;75.17;33.37;;;-3.00;99.90;;;;;;5092560;28;20232;-79
2021/12/23 07:47:13;;;;;;;63.63;29.27;;;-3.00;99.90;;;;;;5092466;28;20252;-79
2021/12/23 07:49:43;;;;;;;57.47;28.80;;;-3.00;99.90;;;;;;5095624;28;20209;-79
2021/12/23 07:52:10;;;;;;;60.23;27.63;;;-2.90;99.90;;;;;;5096871;28;20195;-78
2021/12/23 07:54:40;;;;;;;62.87;29.53;;;-2.90;99.90;;;;;;5097150;28;20194;-79
2021/12/23 07:57:12;;;;;;;72.07;33.77;;;-2.90;99.90;;;;;;5102239;28;20594;-79
2021/12/23 07:59:39;;;;;;;79.27;34.87;;;-2.80;99.90;;;;;;5101447;28;20217;-81
2021/12/23 08:02:06;;;;;;;72.83;34.73;;;-2.80;99.90;;;;;;5101996;28;20215;-81
2021/12/23 08:04:38;;;;;;;57.60;31.67;;;-2.70;99.90;;;;;;5101671;28;20187;-81
2021/12/23 08:07:05;;;;;;;61.40;30.50;;;-2.70;99.90;;;;;;5103142;28;20184;-81
2021/12/23 08:09:33;;;;;;;65.37;32.20;;;-2.70;99.90;;;;;;5099956;28;20697;-81
2021/12/23 08:12:00;;;;;;;64.23;29.13;;;-2.70;99.90;;;;;;5104627;28;20192;-84
2021/12/23 08:14:31;;;;;;;73.43;35.70;;;-2.60;99.90;;;;;;5100176;28;20219;-82
2021/12/23 08:17:04;;;;;;;80.30;39.87;;;-2.60;99.90;;;;;;5102156;28;20312;-79
2021/12/23 08:19:39;;;;;;;55.87;28.10;;;-2.60;99.90;;;;;;5082345;28;20238;-79
2021/12/23 08:22:11;;;;;;;59.37;30.67;;;-2.50;99.90;;;;;;5086872;28;20254;-82
2021/12/23 08:24:38;;;;;;;73.33;36.80;;;-2.50;99.90;;;;;;5085866;28;20195;-81
2021/12/23 08:27:07;;;;;;;59.83;26.87;;;-2.50;99.90;;;;;;5086518;28;20641;-80
2021/12/23 08:29:34;;;;;;;72.30;33.03;;;-2.50;99.90;;;;;;5085383;28;20245;-79
2021/12/23 08:32:04;;;;;;;57.37;32.00;;;-2.40;99.90;;;;;;5087467;28;20191;-80
2021/12/23 08:34:34;;;;;;;62.23;31.07;;;-2.40;99.90;;;;;;5086348;28;20196;-80
2021/12/23 08:37:02;;;;;;;77.87;39.03;;;-2.40;99.90;;;;;;5099369;28;20180;-81
2021/12/23 08:39:30;;;;;;;64.03;30.87;;;-2.40;99.90;;;;;;5107287;28;20240;-81
2021/12/23 08:41:57;;;;;;;87.07;39.47;;;-2.30;99.90;;;;;;5104976;28;20199;-80
2021/12/23 08:44:24;;;;;;;162.23;67.50;;;-2.30;99.90;;;;;;5105981;28;20248;-81
2021/12/23 08:46:51;;;;;;;98.07;51.80;;;-2.30;99.90;;;;;;5105855;28;20198;-79
2021/12/23 08:49:19;;;;;;;86.63;48.27;;;-2.30;99.90;;;;;;5103186;28;20191;-79
2021/12/23 08:51:49;;;;;;;78.10;41.27;;;-2.30;99.90;;;;;;5104053;28;20195;-81
2021/12/23 08:54:17;;;;;;;87.30;47.53;;;-2.30;99.90;;;;;;5104288;28;20191;-79
2021/12/23 08:56:46;;;;;;;149.43;83.83;;;-2.30;99.90;;;;;;5103554;28;20190;-78
2021/12/23 08:59:14;;;;;;;79.17;44.53;;;-2.30;99.90;;;;;;5103691;28;20199;-81
2021/12/23 09:01:42;;;;;;;59.47;31.67;;;-2.30;99.90;;;;;;5105891;28;20240;-79
2021/12/23 09:04:09;;;;;;;58.13;31.17;;;-2.30;99.90;;;;;;5105161;28;20195;-80
2021/12/23 09:06:36;;;;;;;60.03;29.43;;;-2.30;99.90;;;;;;5083872;28;20641;-78
2021/12/23 09:09:04;;;;;;;96.30;45.30;;;-2.30;99.90;;;;;;5084538;28;20271;-81
2021/12/23 09:11:31;;;;;;;127.03;57.83;;;-2.30;99.90;;;;;;5085387;28;20269;-78
2021/12/23 09:14:06;;;;;;;72.17;35.70;;;-2.20;99.90;;;;;;5083773;28;20200;-79
2021/12/23 09:16:33;;;;;;;58.93;30.87;;;-2.20;99.90;;;;;;5102969;28;20178;-79
2021/12/23 09:19:06;;;;;;;56.27;29.20;;;-2.20;99.90;;;;;;5105387;28;20200;-81
2021/12/23 09:21:35;;;;;;;57.70;31.90;;;-2.10;99.90;;;;;;5104857;28;20188;-82
2021/12/23 09:24:06;;;;;;;53.40;28.13;;;-2.10;99.90;;;;;;5103678;28;20203;-79
2021/12/23 09:26:43;;;;;;;54.47;28.27;;;-2.00;99.90;;;;;;5104812;28;20563;-83
2021/12/23 09:32:38;;;;;;;57.17;28.43;;;-2.00;99.90;;;;;;5105185;28;20260;-79
2021/12/23 09:34:47;;;;;;;78.87;46.63;;;-1.80;99.90;;;;;;5106311;28;20218;-81
2021/12/23 09:37:15;;;;;;;54.30;24.67;;;-1.70;99.90;;;;;;5105023;28;20197;-80
2021/12/23 09:39:44;;;;;;;53.23;27.20;;;-1.60;99.90;;;;;;5104295;28;20191;-79
2021/12/23 09:42:14;;;;;;;75.77;38.20;;;-1.50;99.90;;;;;;5104712;28;20195;-80
2021/12/23 09:44:43;;;;;;;69.70;37.63;;;-1.40;99.90;;;;;;5105554;28;20210;-82
2021/12/23 09:47:11;;;;;;;56.03;30.53;;;-1.40;99.90;;;;;;5100635;28;20194;-78
2021/12/23 09:49:38;;;;;;;63.83;32.53;;;-1.30;99.90;;;;;;5101636;28;20199;-79
2021/12/23 09:52:09;;;;;;;57.37;28.97;;;-1.20;99.90;;;;;;5099126;28;20204;-80
2021/12/23 09:54:42;;;;;;;47.57;25.83;;;-1.00;99.90;;;;;;5101493;28;20171;-79
2021/12/23 09:57:12;;;;;;;45.30;25.23;;;-0.80;99.90;;;;;;5100939;28;20240;-79
2021/12/23 09:59:41;;;;;;;44.60;23.40;;;-0.70;99.90;;;;;;5102659;28;20249;-80
2021/12/23 10:02:12;;;;;;;43.57;21.40;;;-0.50;99.90;;;;;;5102163;28;20191;-81
2021/12/23 10:04:39;;;;;;;58.40;29.43;;;-0.40;99.90;;;;;;5103951;28;20187;-80
2021/12/23 10:07:14;;;;;;;47.20;25.90;;;-0.30;99.90;;;;;;5104185;28;20175;-80
2021/12/23 10:09:48;;;;;;;46.93;24.43;;;-0.20;99.90;;;;;;5103722;28;20240;-80
2021/12/23 10:13:03;;;;;;;44.13;22.53;;;-0.20;99.90;;;;;;5101120;28;20175;-79
2021/12/23 10:32:46;;;;;;;44.77;24.23;;;0.10;99.90;;;;;;5072450;28;20232;-79
2021/12/23 10:38:05;;;;;;;46.43;23.77;;;0.00;99.90;;;;;;5103008;28;20179;-82
2021/12/23 10:40:36;;;;;;;40.33;21.53;;;0.00;99.90;;;;;;5103440;28;20182;-81
2021/12/23 10:43:03;;;;;;;51.77;27.33;;;0.00;99.90;;;;;;5102924;28;20252;-80
2021/12/23 10:45:36;;;;;;;47.60;24.67;;;0.00;99.90;;;;;;5106097;28;20217;-81
2021/12/23 10:48:11;;;;;;;84.90;46.13;;;0.00;99.90;;;;;;5104145;28;20176;-80
2021/12/23 10:50:45;;;;;;;92.23;50.67;;;0.00;99.90;;;;;;5104494;28;20179;-78
2021/12/23 10:53:26;;;;;;;50.10;29.20;;;0.00;99.90;;;;;;5104269;28;20270;-80
2021/12/23 10:59:03;;;;;;;46.30;28.83;;;0.10;99.90;;;;;;5103859;28;20245;-81
2021/12/23 11:01:31;;;;;;;44.97;25.80;;;0.20;99.90;;;;;;5103361;28;20232;-79
2021/12/23 11:04:03;;;;;;;41.67;23.87;;;0.20;99.90;;;;;;5104750;28;20219;-79
2021/12/23 11:06:39;;;;;;;51.80;28.10;;;0.10;99.90;;;;;;5102313;28;20183;-81
2021/12/23 11:09:34;;;;;;;59.17;28.50;;;0.10;99.90;;;;;;5103916;28;20184;-80
2021/12/23 11:27:35;;;;;;;62.60;35.70;;;-0.10;99.90;;;;;;5101502;28;20546;-79
2021/12/23 11:39:00;;;;;;;49.30;24.20;;;-0.10;99.90;;;;;;5101151;28;20171;-80
2021/12/23 11:41:38;;;;;;;54.37;27.27;;;-0.10;99.90;;;;;;5101331;28;20187;-79
2021/12/23 11:44:12;;;;;;;56.30;28.87;;;0.00;99.90;;;;;;5102922;28;20672;-80
2021/12/23 11:46:45;;;;;;;67.37;38.10;;;0.00;99.90;;;;;;5102921;28;20202;-78
2021/12/23 11:49:16;;;;;;;52.67;27.33;;;0.00;99.90;;;;;;5102374;28;20183;-78
2021/12/23 11:51:53;;;;;;;51.53;23.60;;;0.00;99.90;;;;;;5101400;28;20282;-79
2021/12/23 11:57:44;;;;;;;42.87;22.60;;;0.00;99.90;;;;;;5143351;27;20534;-79
2021/12/23 12:00:31;;;;;;;38.80;19.90;;;0.00;99.90;;;;;;5142891;28;20181;-80
2021/12/23 12:03:07;;;;;;;47.50;22.73;;;0.00;99.90;;;;;;5140994;27;20166;-78
2021/12/23 12:05:36;;;;;;;38.57;20.07;;;-0.10;99.90;;;;;;5139409;27;20230;-80
2021/12/23 12:08:15;;;;;;;42.53;22.07;;;-0.10;99.90;;;;;;5139457;27;20292;-80
2021/12/23 12:10:44;;;;;;;47.77;22.37;;;-0.10;99.90;;;;;;5138245;28;20264;-80
2021/12/23 12:13:17;;;;;;;41.80;21.70;;;-0.10;99.90;;;;;;5141064;27;20204;-82
2021/12/23 12:15:52;;;;;;;46.43;22.73;;;-0.10;99.90;;;;;;5140556;27;20201;-81
2021/12/23 12:18:21;;;;;;;45.50;22.80;;;-0.20;99.90;;;;;;5138984;27;20199;-79
2021/12/23 12:20:52;;;;;;;57.40;28.67;;;-0.20;99.90;;;;;;5140498;27;20202;-81
2021/12/23 12:23:23;;;;;;;59.80;33.03;;;-0.20;99.90;;;;;;5137017;27;20170;-79
2021/12/23 12:25:56;;;;;;;52.07;27.57;;;-0.20;99.90;;;;;;5141915;27;20178;-81
2021/12/23 12:28:34;;;;;;;54.50;27.10;;;-0.20;99.90;;;;;;5140497;27;20186;-81
2021/12/23 12:31:13;;;;;;;86.80;62.23;;;-0.30;99.90;;;;;;5141484;27;20182;-83
2021/12/23 12:33:55;;;;;;;82.40;59.07;;;-0.20;99.90;;;;;;5135469;27;20599;-80
2021/12/23 12:36:28;;;;;;;64.10;32.23;;;-0.30;99.90;;;;;;5124528;28;20199;-79
2021/12/23 12:39:00;;;;;;;95.00;33.23;;;-0.30;99.90;;;;;;5140567;27;20201;-81
2021/12/23 12:41:30;;;;;;;96.80;35.23;;;-0.30;99.90;;;;;;5136737;27;20524;-80
2021/12/23 12:44:07;;;;;;;167.23;46.43;;;-0.30;99.90;;;;;;5140408;27;20263;-81
2021/12/23 12:47:08;;;;;;;157.90;58.70;;;-0.30;99.90;;;;;;5139255;27;20185;-78
2021/12/23 12:49:41;;;;;;;170.00;57.33;;;-0.30;99.90;;;;;;5138334;27;20656;-81
2021/12/23 12:52:18;;;;;;;89.13;32.80;;;-0.30;99.90;;;;;;5139744;27;20171;-79
2021/12/23 12:55:03;;;;;;;108.87;41.67;;;-0.20;99.90;;;;;;5141703;28;20193;-80
2021/12/23 12:57:35;;;;;;;79.30;33.37;;;-0.20;99.90;;;;;;5140165;27;20583;-78
2021/12/23 13:00:32;;;;;;;81.53;33.80;;;-0.20;99.90;;;;;;5140958;27;20182;-82
2021/12/23 13:03:02;;;;;;;54.70;27.40;;;-0.20;99.90;;;;;;5139011;27;20190;-79
2021/12/23 13:05:40;;;;;;;54.30;29.27;;;-0.20;99.90;;;;;;5117115;28;20220;-78
2021/12/23 13:08:24;;;;;;;45.93;24.17;;;-0.20;99.90;;;;;;5113411;27;20187;-83
2021/12/23 13:10:52;;;;;;;70.97;36.10;;;-0.20;99.90;;;;;;5101844;28;20640;-78
2021/12/23 13:13:32;;;;;;;114.73;72.50;;;-0.20;99.90;;;;;;5107357;27;20647;-79
2021/12/23 13:16:12;;;;;;;68.60;38.63;;;-0.20;99.90;;;;;;5105892;28;20242;-80
2021/12/23 13:18:45;;;;;;;50.77;26.97;;;-0.20;99.90;;;;;;5102885;28;20190;-80
2021/12/23 13:21:13;;;;;;;40.70;21.80;;;-0.20;99.90;;;;;;5102370;28;20175;-80
2021/12/23 13:23:45;;;;;;;58.07;29.93;;;-0.20;99.90;;;;;;5108362;27;20195;-79
2021/12/23 13:26:14;;;;;;;56.30;28.97;;;-0.20;99.90;;;;;;5115456;28;20190;-78
2021/12/23 13:28:47;;;;;;;54.63;28.00;;;-0.20;99.90;;;;;;5123976;28;20218;-78
2021/12/23 13:31:20;;;;;;;51.27;25.60;;;-0.30;99.90;;;;;;5122019;28;20408;-80
2021/12/23 13:36:44;;;;;;;47.00;25.07;;;-0.30;99.90;;;;;;5122211;28;20219;-79
2021/12/23 13:39:13;;;;;;;50.97;23.90;;;-0.30;99.90;;;;;;5122993;28;20190;-79
2021/12/23 13:41:41;;;;;;;52.07;25.07;;;-0.30;99.90;;;;;;5126600;28;20231;-80
2021/12/23 13:44:23;;;;;;;56.40;28.23;;;-0.30;99.90;;;;;;5123629;28;20532;-78
2021/12/23 13:47:01;;;;;;;65.73;29.83;;;-0.40;99.90;;;;;;5115127;28;20225;-79
2021/12/23 13:49:45;;;;;;;61.53;28.90;;;-0.40;99.90;;;;;;5110791;28;20255;-80
2021/12/23 13:52:23;;;;;;;44.57;23.13;;;-0.40;99.90;;;;;;5106514;27;20182;-78
2021/12/23 13:55:08;;;;;;;51.70;26.30;;;-0.40;99.90;;;;;;5104647;28;20187;-82
2021/12/23 13:58:26;;;;;;;100.00;50.60;;;-0.40;99.90;;;;;;5103930;28;20211;-81
2021/12/23 14:01:00;;;;;;;57.37;28.53;;;-0.40;99.90;;;;;;5105805;28;20238;-82
2021/12/23 14:03:29;;;;;;;63.07;36.93;;;-0.50;99.90;;;;;;5102860;28;20187;-80
2021/12/23 14:05:57;;;;;;;73.03;40.63;;;-0.40;99.90;;;;;;5104856;28;20236;-80
2021/12/23 14:08:25;;;;;;;51.00;26.90;;;-0.40;99.90;;;;;;5104371;28;20171;-80
2021/12/23 14:10:56;;;;;;;49.67;24.67;;;-0.40;99.90;;;;;;5109312;28;20186;-80
2021/12/23 14:13:24;;;;;;;42.83;24.67;;;-0.40;99.90;;;;;;5123630;28;20197;-80
2021/12/23 14:16:01;;;;;;;43.80;22.27;;;-0.40;99.90;;;;;;5123296;28;20200;-80
2021/12/23 14:18:46;;;;;;;50.50;23.57;;;-0.40;99.90;;;;;;5122764;28;20684;-78
2021/12/23 14:24:17;;;;;;;58.30;26.50;;;-0.50;99.90;;;;;;5102401;28;20186;-78
2021/12/23 14:26:45;;;;;;;46.07;20.27;;;-0.50;99.90;;;;;;5111445;27;20841;-78
2021/12/23 14:29:22;;;;;;;56.23;27.23;;;-0.50;99.90;;;;;;5107593;28;20195;-78
2021/12/23 14:31:51;;;;;;;44.23;21.47;;;-0.50;99.90;;;;;;5123201;28;20240;-77
2021/12/23 14:34:37;;;;;;;77.20;31.23;;;-0.50;99.90;;;;;;5124489;28;20198;-78
2021/12/23 14:37:10;;;;;;;106.53;36.00;;;-0.50;99.90;;;;;;5122515;28;20203;-79
2021/12/23 14:42:20;;;;;;;125.27;48.87;;;-0.50;99.90;;;;;;5107397;28;20578;-79
2021/12/23 14:44:59;;;;;;;98.43;39.90;;;-0.60;99.90;;;;;;5115242;28;20199;-79
2021/12/23 14:47:29;;;;;;;116.60;45.63;;;-0.50;99.90;;;;;;5115106;28;20228;-79
2021/12/23 14:50:13;;;;;;;118.63;46.27;;;-0.60;99.90;;;;;;5114604;28;20197;-79
2021/12/23 14:52:43;;;;;;;78.27;35.17;;;-0.60;99.90;;;;;;5113716;28;20202;-80
2021/12/23 14:55:14;;;;;;;73.70;37.97;;;-0.60;99.90;;;;;;5093982;28;20179;-79
2021/12/23 14:57:49;;;;;;;69.67;35.03;;;-0.60;99.90;;;;;;5097602;28;20209;-79
2021/12/23 15:00:19;;;;;;;57.70;27.40;;;-0.60;99.90;;;;;;5110994;27;20190;-79
2021/12/23 15:02:46;;;;;;;60.53;25.70;;;-0.60;99.90;;;;;;5113939;28;20194;-79
2021/12/23 15:05:16;;;;;;;64.60;27.33;;;-0.60;99.90;;;;;;5113645;28;20218;-80
2021/12/23 15:08:00;;;;;;;52.80;25.13;;;-0.60;99.90;;;;;;5113317;28;20197;-79